Time;durP1;ratioP1;P1;durP2;ratioP2;P2;SDS_P1;SDS_P2;PMS_P1;PMS_P2;Temp;Humidity;BMP_temperature;BMP_pressure;BME280_temperature;BME280_humidity;BME280_pressure;Samples;Min_cycle;Max_cycle;Signal;HPM_P1;HPM_P2
2021/09/27 00:01:44;;;;;;;6.60;5.15;;;;;;;28.78;59.23;100780.06;5030736;28;67754;-38
2021/09/27 00:04:16;;;;;;;5.43;5.00;;;;;;;28.82;59.82;100785.84;5037043;28;70534;-38
2021/09/27 00:06:48;;;;;;;5.97;5.47;;;;;;;28.85;60.31;100791.66;5034620;28;66252;-38
2021/09/27 00:09:19;;;;;;;6.35;5.70;;;;;;;28.81;60.49;100779.63;5047963;28;70485;-36
2021/09/27 00:11:50;;;;;;;7.80;7.20;;;;;;;28.93;62.14;100794.16;5046946;28;66237;-36
2021/09/27 00:14:21;;;;;;;9.45;8.00;;;;;;;29.01;64.38;100800.38;5046576;28;70053;-36
2021/09/27 00:16:52;;;;;;;8.15;7.50;;;;;;;28.88;66.10;100779.63;5028837;28;65974;-36
2021/09/27 00:19:24;;;;;;;15.32;9.10;;;;;;;29.11;64.20;100808.91;5044229;27;69683;-37
2021/09/27 00:21:56;;;;;;;11.40;8.20;;;;;;;29.18;65.32;100812.44;5045823;28;66953;-36
2021/09/27 00:24:27;;;;;;;19.83;8.80;;;;;;;29.19;64.89;100811.38;5042920;28;69888;-37
2021/09/27 00:26:59;;;;;;;11.52;8.55;;;;;;;29.27;65.36;100821.97;5047226;28;65367;-39
2021/09/27 00:29:30;;;;;;;11.38;9.20;;;;;;;29.25;64.90;100817.81;5048230;28;70275;-37
2021/09/27 00:32:04;;;;;;;10.77;9.70;;;;;;;29.35;65.20;100819.03;5048544;28;66107;-37
2021/09/27 00:34:35;;;;;;;12.57;9.57;;;;;;;29.38;65.43;100824.03;5042990;28;69373;-41
2021/09/27 00:37:06;;;;;;;9.57;8.75;;;;;;;29.39;65.87;100817.59;5034037;28;65702;-37
2021/09/27 00:39:38;;;;;;;11.07;9.10;;;;;;;29.30;66.61;100810.72;5044378;28;70200;-36
2021/09/27 00:42:11;;;;;;;15.25;9.85;;;;;;;29.42;66.60;100835.25;5045562;28;66228;-36
2021/09/27 00:44:42;;;;;;;10.77;9.68;;;;;;;29.39;66.74;100820.28;5032123;28;69251;-39
2021/09/27 00:47:13;;;;;;;10.75;9.57;;;;;;;29.48;67.24;100844.38;5046758;28;67352;-42
2021/09/27 00:49:50;;;;;;;11.38;10.18;;;;;;;29.47;67.63;100831.91;5035768;28;70368;-36
2021/09/27 00:52:25;;;;;;;11.88;10.73;;;;;;;29.51;66.78;100839.38;5045130;28;66476;-36
2021/09/27 00:55:03;;;;;;;20.08;12.13;;;;;;;29.50;67.81;100843.09;5039034;28;71168;-38
2021/09/27 00:57:38;;;;;;;15.07;11.98;;;;;;;29.56;68.31;100841.44;5018094;28;66389;-37
2021/09/27 01:00:15;;;;;;;12.20;10.95;;;;;;;29.55;67.40;100840.59;5051505;28;70026;-37
2021/09/27 01:02:55;;;;;;;16.58;12.32;;;;;;;29.54;68.15;100852.47;5047656;28;66255;-36
2021/09/27 01:05:40;;;;;;;13.68;11.35;;;;;;;29.59;67.89;100857.25;5023753;28;70187;-36
2021/09/27 01:08:45;;;;;;;14.48;11.43;;;;;;;29.55;69.53;100858.69;5053446;27;66552;-37
2021/09/27 01:12:09;;;;;;;13.95;10.38;;;;;;;29.50;70.30;100853.09;5044162;28;70030;-37
2021/09/27 01:15:07;;;;;;;18.23;10.57;;;;;;;29.53;69.96;100866.19;4965637;28;66189;-37
2021/09/27 01:18:15;;;;;;;11.48;10.45;;;;;;;29.57;69.70;100867.44;4968910;28;69841;-37
2021/09/27 01:21:23;;;;;;;19.05;11.02;;;;;;;29.55;69.85;100856.00;4948675;28;65772;-37
2021/09/27 01:24:21;;;;;;;15.15;10.57;;;;;;;29.56;69.84;100841.44;4971592;28;69448;-37
2021/09/27 01:27:13;;;;;;;15.05;10.32;;;;;;;29.69;70.05;100852.25;5015365;28;66958;-36
2021/09/27 01:30:34;;;;;;;11.43;10.25;;;;;;;29.64;70.68;100864.72;5046473;28;69911;-37
2021/09/27 01:33:43;;;;;;;13.27;9.80;;;;;;;29.72;70.15;100856.41;5046563;28;66779;-37
2021/09/27 01:36:51;;;;;;;11.27;10.07;;;;;;;29.76;70.14;100853.06;5043073;28;70220;-37
2021/09/27 01:39:52;;;;;;;14.98;10.00;;;;;;;29.70;70.85;100853.91;5058157;27;65655;-38
2021/09/27 01:42:50;;;;;;;13.68;10.40;;;;;;;29.49;71.10;100824.41;5045879;28;69238;-36
2021/09/27 01:45:53;;;;;;;17.70;9.30;;;;;;;29.78;70.87;100859.09;5026992;28;66625;-37
2021/09/27 01:49:06;;;;;;;11.60;9.38;;;;;;;29.84;70.62;100860.94;5024090;27;69540;-37
2021/09/27 01:51:51;;;;;;;14.13;9.68;;;;;;;29.87;70.47;100850.75;5014606;28;66517;-38
2021/09/27 01:54:49;;;;;;;10.20;9.10;;;;;;;29.80;70.87;100843.47;5048455;28;69312;-38
2021/09/27 01:57:56;;;;;;;10.10;8.25;;;;;;;29.89;70.69;100846.75;5054891;28;65813;-37
2021/09/27 02:00:46;;;;;;;9.27;8.38;;;;;;;29.93;69.79;100844.47;5045788;28;70071;-37
2021/09/27 02:03:57;;;;;;;7.63;6.97;;;;;;;29.89;69.85;100846.75;5051224;27;65439;-37
2021/09/27 02:06:52;;;;;;;12.02;7.30;;;;;;;30.00;69.80;100853.38;5056604;28;70004;-37
2021/09/27 02:10:08;;;;;;;;;;;;;;;;;;;;;
2021/09/27 02:13:30;;;;;;;10.35;5.68;;;;;;;29.79;68.46;100824.78;5040576;28;69919;-37
2021/09/27 02:16:33;;;;;;;6.03;5.53;;;;;;;30.05;68.11;100842.75;5028629;28;66026;-37
2021/09/27 02:19:31;;;;;;;11.15;7.22;;;;;;;29.92;68.38;100810.34;5044175;28;69963;-37
2021/09/27 02:23:01;;;;;;;6.07;5.53;;;;;;;30.10;68.37;100842.94;5042062;28;66803;-37
2021/09/27 02:25:44;;;;;;;12.80;5.72;;;;;;;30.21;67.30;100836.84;5040567;27;69975;-38
2021/09/27 02:28:33;;;;;;;7.85;6.70;;;;;;;30.24;67.46;100833.72;5039507;28;66128;-38
2021/09/27 02:31:29;;;;;;;13.02;10.23;;;;;;;30.26;67.57;100845.16;5018549;28;69964;-35
2021/09/27 02:34:31;;;;;;;10.57;9.57;;;;;;;30.31;66.85;100835.53;5027276;27;66352;-38
2021/09/27 02:37:38;;;;;;;9.80;7.10;;;;;;;30.34;67.29;100835.97;5043392;28;69536;-38
2021/09/27 02:40:40;;;;;;;6.93;6.43;;;;;;;30.34;66.87;100843.22;5046641;28;66697;-38
2021/09/27 02:43:19;;;;;;;6.68;6.07;;;;;;;30.37;66.91;100835.53;5042531;28;70348;-37
2021/09/27 02:45:58;;;;;;;8.05;5.65;;;;;;;30.20;66.49;100807.28;5053022;28;65090;-37
2021/09/27 02:48:57;;;;;;;5.85;5.22;;;;;;;30.45;66.34;100834.41;5023239;28;69219;-36
2021/09/27 02:51:45;;;;;;;5.75;5.35;;;;;;;30.25;65.72;100802.91;5047641;28;66592;-36
2021/09/27 02:54:44;;;;;;;5.50;5.00;;;;;;;30.49;66.20;100841.06;5045863;27;69249;-37
2021/09/27 02:57:47;;;;;;;6.05;5.50;;;;;;;30.46;66.21;100833.38;5029115;28;66227;-37
2021/09/27 03:00:56;;;;;;;7.03;6.00;;;;;;;30.44;65.57;100833.59;5039116;28;70134;-38
2021/09/27 03:04:10;;;;;;;7.03;6.43;;;;;;;30.48;65.16;100837.53;5027247;28;66796;-37
2021/09/27 03:07:23;;;;;;;5.82;5.40;;;;;;;30.56;65.54;100828.28;5053421;28;70171;-37
2021/09/27 03:10:26;;;;;;;6.47;5.97;;;;;;;30.63;65.43;100834.50;5047061;28;66599;-37
2021/09/27 03:13:40;;;;;;;7.13;6.50;;;;;;;30.62;64.76;100830.16;5045064;28;70435;-37
2021/09/27 03:17:37;;;;;;;8.65;5.60;;;;;;;30.60;65.45;100826.81;5042592;28;66072;-37
2021/09/27 03:20:55;;;;;;;6.32;5.70;;;;;;;30.75;64.81;100817.53;5046994;28;69984;-37
2021/09/27 03:23:32;;;;;;;6.97;6.38;;;;;;;30.87;65.02;100826.63;5022794;28;66662;-37
2021/09/27 03:26:40;;;;;;;8.73;6.13;;;;;;;30.80;65.36;100821.28;5032434;28;70232;-36
2021/09/27 03:30:07;;;;;;;6.97;6.45;;;;;;;30.90;64.71;100823.50;5037571;28;66391;-36
2021/09/27 03:33:21;;;;;;;6.18;5.63;;;;;;;30.92;64.56;100818.66;5036636;28;69495;-37
2021/09/27 03:36:47;;;;;;;6.65;6.25;;;;;;;31.03;64.95;100820.66;5041461;28;66981;-37
2021/09/27 03:39:29;;;;;;;9.18;6.10;;;;;;;31.07;64.84;100811.03;5038214;28;70251;-37
2021/09/27 03:42:12;;;;;;;5.70;5.15;;;;;;;31.09;63.92;100803.53;5048726;27;66191;-36
2021/09/27 03:45:02;;;;;;;6.72;6.18;;;;;;;31.15;63.66;100796.38;5034535;28;69516;-37
2021/09/27 03:47:49;;;;;;;6.22;5.82;;;;;;;31.21;64.49;100789.22;5055017;28;65934;-37
2021/09/27 03:50:48;;;;;;;10.75;6.28;;;;;;;31.25;64.11;100790.41;5043608;28;70625;-37
2021/09/27 03:53:41;;;;;;;6.45;6.05;;;;;;;31.06;64.02;100757.88;5037476;28;65500;-36
2021/09/27 03:56:24;;;;;;;7.03;6.53;;;;;;;31.30;63.82;100785.16;5034492;28;70293;-36
2021/09/27 03:59:36;;;;;;;7.30;6.88;;;;;;;31.32;63.55;100781.19;5039794;28;66351;-40
2021/09/27 04:02:32;;;;;;;6.72;6.28;;;;;;;31.41;63.87;100775.47;5039076;28;69821;-36
2021/09/27 04:05:17;;;;;;;11.27;6.60;;;;;;;31.46;64.04;100759.38;5041009;28;66590;-37
2021/09/27 04:08:14;;;;;;;7.68;7.10;;;;;;;31.51;63.57;100754.94;5040302;28;68836;-37
2021/09/27 04:11:09;;;;;;;7.03;6.20;;;;;;;31.49;63.40;100754.31;5040279;28;66541;-37
2021/09/27 04:14:00;;;;;;;7.47;6.50;;;;;;;31.52;63.81;100751.16;5016760;28;70093;-37
2021/09/27 04:17:13;;;;;;;7.40;6.88;;;;;;;31.48;64.18;100736.41;5022871;28;66109;-37
2021/09/27 04:19:50;;;;;;;8.00;7.20;;;;;;;31.57;63.75;100745.03;5043106;28;70255;-37
2021/09/27 04:22:47;;;;;;;6.93;6.43;;;;;;;31.43;63.24;100711.84;5040181;28;65634;-37
2021/09/27 04:26:00;;;;;;;7.30;6.80;;;;;;;31.56;62.68;100733.34;5035050;28;69547;-36
2021/09/27 04:29:07;;;;;;;6.53;5.90;;;;;;;31.63;62.89;100727.03;5050097;28;65961;-37
2021/09/27 04:31:52;;;;;;;7.07;6.57;;;;;;;31.66;62.21;100721.97;5039239;28;69465;-36
2021/09/27 04:34:49;;;;;;;7.13;6.63;;;;;;;31.72;61.80;100717.50;5044790;28;65969;-36
2021/09/27 04:37:23;;;;;;;6.50;6.20;;;;;;;31.80;61.92;100719.91;5021889;28;69133;-37
2021/09/27 04:39:57;;;;;;;7.10;6.70;;;;;;;31.80;61.80;100719.91;5038531;28;65356;-37
2021/09/27 04:43:08;;;;;;;6.70;6.30;;;;;;;31.77;61.89;100717.66;5039370;28;69197;-37
2021/09/27 04:46:03;;;;;;;6.78;6.38;;;;;;;31.73;61.88;100700.19;5043200;28;65417;-37
2021/09/27 04:48:55;;;;;;;7.75;6.28;;;;;;;31.87;62.11;100709.78;5038059;28;68877;-37
2021/09/27 04:51:49;;;;;;;6.63;6.13;;;;;;;31.87;61.57;100701.63;5039220;28;66532;-37
2021/09/27 04:54:43;;;;;;;6.53;6.13;;;;;;;31.90;61.59;100693.06;5043070;28;69956;-37
2021/09/27 04:57:25;;;;;;;7.20;6.70;;;;;;;31.99;61.18;100691.69;5038624;28;65599;-37
2021/09/27 05:00:17;;;;;;;7.47;6.25;;;;;;;31.95;60.83;100690.47;5042440;28;69171;-36
2021/09/27 05:03:25;;;;;;;6.05;5.75;;;;;;;31.96;60.80;100683.19;5043904;28;65100;-36
2021/09/27 05:06:24;;;;;;;7.47;6.45;;;;;;;31.78;60.78;100627.91;5039356;28;70647;-36
2021/09/27 05:09:02;;;;;;;7.53;6.93;;;;;;;32.12;61.04;100676.25;5061236;27;65897;-37
2021/09/27 05:11:59;;;;;;;7.80;5.93;;;;;;;32.13;60.38;100667.88;5043730;28;69866;-36
2021/09/27 05:14:53;;;;;;;6.85;6.45;;;;;;;32.10;59.83;100662.09;5045413;28;66130;-37
2021/09/27 05:17:47;;;;;;;7.63;6.95;;;;;;;32.15;60.93;100654.06;5044429;28;70437;-36
2021/09/27 05:21:02;;;;;;;6.80;6.25;;;;;;;32.07;59.61;100651.69;5043200;27;65515;-37
2021/09/27 05:23:40;;;;;;;7.20;6.30;;;;;;;31.92;58.51;100633.97;5026989;28;70032;-36
2021/09/27 05:26:31;;;;;;;6.75;5.97;;;;;;;31.86;57.43;100629.47;5047819;28;65498;-36
2021/09/27 05:29:08;;;;;;;5.97;5.68;;;;;;;31.69;56.37;100628.50;5041808;28;69697;-36
2021/09/27 05:32:20;;;;;;;6.90;5.15;;;;;;;31.24;56.49;100582.84;5046761;28;66289;-37
2021/09/27 05:35:33;;;;;;;6.45;5.55;;;;;;;31.38;55.36;100603.28;5052574;28;70003;-37
2021/09/27 05:38:10;;;;;;;4.95;4.65;;;;;;;31.41;55.03;100607.44;5042819;28;66330;-36
2021/09/27 05:41:07;;;;;;;5.35;4.95;;;;;;;31.36;53.84;100602.69;5045010;28;69355;-36
2021/09/27 05:43:58;;;;;;;5.78;4.80;;;;;;;31.30;53.09;100595.44;5043356;28;65409;-38
2021/09/27 05:46:44;;;;;;;4.80;4.47;;;;;;;31.23;51.93;100589.28;5025210;28;69173;-36
2021/09/27 05:49:54;;;;;;;5.47;4.57;;;;;;;31.11;51.73;100589.25;5013897;28;66040;-37
2021/09/27 05:52:45;;;;;;;22.50;5.88;;;;;;;31.11;51.61;100590.06;5044579;28;69403;-37
2021/09/27 05:55:22;;;;;;;5.95;4.32;;;;;;;31.06;51.54;100576.38;5043906;28;66111;-37
2021/09/27 05:58:03;;;;;;;3.90;3.67;;;;;;;30.99;50.63;100569.41;5033836;28;70832;-36
2021/09/27 06:00:52;;;;;;;4.40;4.03;;;;;;;30.87;50.43;100562.06;5018132;28;66621;-36
2021/09/27 06:03:34;;;;;;;4.22;3.97;;;;;;;30.80;50.12;100560.47;5039547;28;69440;-36
2021/09/27 06:06:11;;;;;;;4.40;4.10;;;;;;;30.73;49.81;100553.25;5036348;28;66391;-36
2021/09/27 06:08:50;;;;;;;3.60;3.40;;;;;;;30.69;49.92;100552.03;5024981;28;69035;-36
2021/09/27 06:11:38;;;;;;;4.20;4.00;;;;;;;30.60;49.16;100550.69;5028343;28;65491;-37
2021/09/27 06:14:15;;;;;;;4.13;3.92;;;;;;;30.65;48.92;100555.44;5033804;28;70928;-37
2021/09/27 06:17:12;;;;;;;5.00;3.38;;;;;;;30.59;48.81;100546.34;5018035;28;65554;-37
2021/09/27 06:20:07;;;;;;;3.45;3.25;;;;;;;30.49;48.08;100537.91;5018170;28;69184;-35
2021/09/27 06:23:06;;;;;;;3.65;3.45;;;;;;;30.57;48.90;100548.44;5046009;28;65599;-35
2021/09/27 06:26:07;;;;;;;3.63;3.42;;;;;;;30.58;47.55;100544.66;5021023;28;70381;-37
2021/09/27 06:29:07;;;;;;;3.50;3.20;;;;;;;30.54;47.62;100546.19;5039719;28;65325;-37
2021/09/27 06:31:55;;;;;;;3.03;2.83;;;;;;;30.59;47.36;100540.94;5059147;28;71139;-36
2021/09/27 06:34:55;;;;;;;3.72;3.58;;;;;;;30.56;46.83;100538.66;5044683;28;66291;-37
2021/09/27 06:37:29;;;;;;;3.70;3.40;;;;;;;30.59;46.95;100538.22;5035696;28;70038;-37
2021/09/27 06:40:07;;;;;;;3.25;3.08;;;;;;;30.60;46.98;100531.75;5015409;28;66684;-37
2021/09/27 06:42:43;;;;;;;3.40;3.20;;;;;;;30.60;46.80;100523.63;5043194;28;70582;-36
2021/09/27 06:45:17;;;;;;;5.30;3.15;;;;;;;30.61;46.28;100522.56;5045397;28;66544;-36
2021/09/27 06:47:52;;;;;;;3.20;3.00;;;;;;;30.63;46.65;100517.75;5045012;28;69384;-36
2021/09/27 06:50:28;;;;;;;3.42;3.22;;;;;;;30.61;46.57;100519.84;5044403;28;66486;-37
2021/09/27 06:53:03;;;;;;;3.10;2.90;;;;;;;30.64;45.55;100521.28;5049604;28;70063;-36
2021/09/27 06:55:45;;;;;;;3.17;2.97;;;;;;;30.67;45.61;100513.56;5043934;28;65649;-36
2021/09/27 06:58:17;;;;;;;3.20;3.00;;;;;;;30.70;46.03;100510.38;5041366;28;70067;-35
2021/09/27 07:00:59;;;;;;;3.75;2.60;;;;;;;30.71;46.09;100509.31;5036514;28;65600;-36
2021/09/27 07:03:34;;;;;;;4.72;3.05;;;;;;;30.73;45.70;100512.63;5041162;28;70177;-36
2021/09/27 07:06:14;;;;;;;3.00;2.80;;;;;;;30.76;45.49;100499.66;5040253;28;65456;-36
2021/09/27 07:08:46;;;;;;;2.83;2.72;;;;;;;30.76;45.43;100500.53;4978553;28;68342;-36
2021/09/27 07:11:22;;;;;;;4.15;3.20;;;;;;;30.76;45.76;100495.09;5039812;28;65406;-37
2021/09/27 07:13:58;;;;;;;3.58;2.97;;;;;;;30.77;45.71;100485.09;5038942;28;69490;-37
2021/09/27 07:16:31;;;;;;;5.70;2.88;;;;;;;30.74;45.08;100491.78;5040279;28;66513;-36
2021/09/27 07:19:11;;;;;;;5.43;2.63;;;;;;;30.77;45.15;100485.09;5041609;28;69351;-38
2021/09/27 07:21:47;;;;;;;3.67;3.47;;;;;;;30.72;44.87;100475.75;5026472;28;66034;-37
2021/09/27 07:24:24;;;;;;;3.22;3.03;;;;;;;30.76;44.87;100478.84;5042872;28;69642;-37
2021/09/27 07:27:01;;;;;;;6.20;2.90;;;;;;;30.78;45.36;100471.31;5038401;28;66142;-38
2021/09/27 07:29:33;;;;;;;3.33;3.13;;;;;;;30.77;45.46;100464.25;5023085;28;69573;-36
2021/09/27 07:32:08;;;;;;;5.20;3.20;;;;;;;30.87;45.31;100469.13;5034697;28;65705;-37
2021/09/27 07:34:46;;;;;;;6.32;3.15;;;;;;;30.86;44.69;100456.66;5013461;28;69980;-36
2021/09/27 07:37:23;;;;;;;4.50;3.08;;;;;;;30.89;44.45;100442.66;5022428;28;65409;-36
2021/09/27 07:39:59;;;;;;;5.78;2.95;;;;;;;30.94;44.23;100438.19;5015875;28;69935;-36
2021/09/27 07:42:32;;;;;;;3.40;3.10;;;;;;;31.01;45.53;100440.81;4990416;28;65720;-37
2021/09/27 07:45:16;;;;;;;5.78;4.03;;;;;;;31.11;47.96;100442.94;5044761;28;69994;-36
2021/09/27 07:48:16;;;;;;;4.57;4.20;;;;;;;31.08;49.30;100414.44;5032039;28;66162;-36
2021/09/27 07:51:09;;;;;;;12.60;4.63;;;;;;;31.41;50.07;100429.34;5027170;28;70803;-36
2021/09/27 07:53:45;;;;;;;7.13;4.60;;;;;;;31.55;50.79;100428.06;5045061;28;66560;-36
2021/09/27 07:56:19;;;;;;;7.00;4.30;;;;;;;31.69;50.82;100422.41;5005373;28;68330;-36
2021/09/27 07:59:00;;;;;;;15.40;4.47;;;;;;;31.80;51.24;100424.28;5047159;28;65574;-36
2021/09/27 08:01:39;;;;;;;6.15;4.90;;;;;;;31.98;52.14;100426.91;5033101;28;70214;-37
2021/09/27 08:04:19;;;;;;;;;;;;;;;31.93;54.04;100415.06;5035649;28;65927;-38
2021/09/27 08:06:54;;;;;;;5.47;5.07;;;;;;;32.19;54.09;100416.47;5053024;28;69166;-36
2021/09/27 08:09:31;;;;;;;7.50;5.70;;;;;;;32.31;54.65;100414.53;5031001;28;66271;-36
2021/09/27 08:12:12;;;;;;;6.60;6.05;;;;;;;32.38;55.04;100415.22;5042181;28;68883;-36
2021/09/27 08:14:56;;;;;;;6.45;6.05;;;;;;;32.44;55.07;100408.81;5047428;28;65260;-37
2021/09/27 08:17:30;;;;;;;6.28;5.97;;;;;;;32.49;55.53;100406.22;5045414;28;69165;-36
2021/09/27 08:20:08;;;;;;;6.00;5.70;;;;;;;32.58;55.86;100405.84;5041330;28;66579;-37
2021/09/27 08:22:42;;;;;;;10.32;6.20;;;;;;;32.66;55.61;100408.16;5022094;28;69942;-36
2021/09/27 08:25:16;;;;;;;7.55;5.95;;;;;;;32.72;55.57;100405.28;5041036;28;65299;-37
2021/09/27 08:27:51;;;;;;;10.10;5.68;;;;;;;32.80;55.86;100409.50;5003092;28;69246;-35
2021/09/27 08:30:32;;;;;;;6.53;5.93;;;;;;;32.87;55.71;100403.91;5043386;28;65583;-39
2021/09/27 08:33:08;;;;;;;6.10;5.50;;;;;;;32.93;55.67;100401.03;5043373;28;69344;-37
2021/09/27 08:35:40;;;;;;;8.00;6.22;;;;;;;33.04;55.82;100409.38;5031406;28;65236;-38
2021/09/27 08:38:11;;;;;;;;;;;;;;;32.86;56.70;100421.28;5048735;28;70346;-38
2021/09/27 08:40:58;;;;;;;5.90;5.60;;;;;;;33.08;56.32;100418.69;5044197;28;65550;-38
2021/09/27 08:43:58;;;;;;;6.68;6.20;;;;;;;33.12;56.52;100436.16;5040957;28;70475;-39
2021/09/27 08:46:41;;;;;;;9.93;6.20;;;;;;;33.25;56.11;100435.81;5047159;28;66101;-38
2021/09/27 08:49:17;;;;;;;8.15;7.53;;;;;;;33.34;55.42;100437.06;5037904;28;69285;-38
2021/09/27 08:51:51;;;;;;;7.82;7.10;;;;;;;33.42;55.28;100440.44;5046019;28;65553;-39
2021/09/27 08:54:25;;;;;;;6.88;6.40;;;;;;;33.49;54.69;100451.94;5052564;28;70231;-38
2021/09/27 08:57:36;;;;;;;6.80;6.35;;;;;;;33.44;54.80;100438.31;5040299;28;66231;-38
2021/09/27 09:00:20;;;;;;;6.88;6.20;;;;;;;33.61;54.74;100455.44;5045788;28;70161;-38
2021/09/27 09:02:58;;;;;;;7.43;6.93;;;;;;;33.62;54.99;100465.25;5050553;28;65573;-38
2021/09/27 09:05:32;;;;;;;12.80;6.15;;;;;;;33.69;54.59;100459.66;5041003;28;69274;-38
2021/09/27 09:08:30;;;;;;;15.98;6.30;;;;;;;33.64;54.41;100465.00;5038320;28;66751;-38
2021/09/27 09:11:08;;;;;;;6.95;6.45;;;;;;;33.71;54.43;100466.50;5046181;28;69200;-39
2021/09/27 09:13:49;;;;;;;8.25;6.03;;;;;;;33.76;54.15;100463.00;5042451;28;66160;-38
2021/09/27 09:16:24;;;;;;;6.93;6.43;;;;;;;33.72;54.21;100457.25;5046162;28;70662;-38
2021/09/27 09:19:02;;;;;;;6.97;6.28;;;;;;;33.74;54.19;100460.56;5048881;28;65844;-38
2021/09/27 09:21:45;;;;;;;7.10;6.47;;;;;;;33.78;53.94;100472.56;5048637;28;70063;-38
2021/09/27 09:24:22;;;;;;;6.80;6.40;;;;;;;33.79;54.58;100468.78;5054752;28;66492;-39
2021/09/27 09:26:58;;;;;;;7.97;7.20;;;;;;;33.63;54.53;100437.00;5046195;28;69212;-39
2021/09/27 09:29:34;;;;;;;7.15;6.65;;;;;;;33.81;54.86;100469.34;5050524;28;65679;-40
2021/09/27 09:32:25;;;;;;;8.27;7.63;;;;;;;33.79;54.82;100471.50;5059645;28;69919;-39
2021/09/27 09:35:17;;;;;;;8.20;7.45;;;;;;;33.78;55.03;100467.13;5047380;28;66315;-38
2021/09/27 09:37:55;;;;;;;10.00;7.57;;;;;;;33.75;54.86;100451.31;5062528;27;69252;-39
2021/09/27 09:40:39;;;;;;;6.93;6.32;;;;;;;33.80;54.71;100462.25;5050521;28;65611;-39
2021/09/27 09:43:14;;;;;;;6.82;6.45;;;;;;;33.75;54.81;100459.47;5052319;28;69195;-37
2021/09/27 09:45:47;;;;;;;8.40;6.63;;;;;;;33.86;54.34;100479.47;5055656;28;65756;-40
2021/09/27 09:48:27;;;;;;;6.28;5.88;;;;;;;33.83;54.09;100479.16;5049487;28;70115;-39
2021/09/27 09:51:23;;;;;;;7.05;6.43;;;;;;;33.79;54.08;100479.66;5043273;27;65776;-38
2021/09/27 09:54:29;;;;;;;9.70;7.55;;;;;;;33.86;54.12;100478.66;5052115;28;70396;-39
2021/09/27 09:57:22;;;;;;;8.32;7.72;;;;;;;33.83;55.32;100477.25;5054237;27;65344;-39
2021/09/27 10:00:34;;;;;;;8.20;7.63;;;;;;;33.71;56.15;100482.81;5048029;28;69261;-39
2021/09/27 10:03:07;;;;;;;10.50;8.02;;;;;;;33.74;56.48;100493.19;5038639;28;65517;-39
2021/09/27 10:05:54;;;;;;;7.85;7.40;;;;;;;33.73;56.40;100486.09;5044863;28;69589;-39
2021/09/27 10:08:26;;;;;;;7.70;6.97;;;;;;;33.76;56.53;100499.19;5052376;28;65913;-39
2021/09/27 10:11:12;;;;;;;6.53;6.18;;;;;;;33.55;56.61;100461.91;5047412;28;69440;-38
2021/09/27 10:13:53;;;;;;;9.05;7.43;;;;;;;33.75;56.61;100500.28;5042884;28;66292;-38
2021/09/27 10:16:37;;;;;;;7.77;7.07;;;;;;;33.71;56.97;100498.28;5037549;28;69302;-39
2021/09/27 10:19:37;;;;;;;7.32;6.70;;;;;;;33.63;56.51;100498.69;5039264;28;66274;-39
2021/09/27 10:22:12;;;;;;;7.28;6.65;;;;;;;33.47;56.06;100456.84;5040653;28;69480;-38
2021/09/27 10:24:50;;;;;;;7.85;6.10;;;;;;;33.60;56.18;100475.56;5046019;28;66464;-39
2021/09/27 10:27:44;;;;;;;8.27;7.07;;;;;;;33.56;56.70;100488.00;5048075;28;68456;-38
2021/09/27 10:30:22;;;;;;;6.45;6.00;;;;;;;33.58;56.93;100494.03;5048284;28;66173;-39
2021/09/27 10:32:59;;;;;;;7.22;6.28;;;;;;;33.62;56.33;100494.34;5048336;28;69996;-38
2021/09/27 10:35:40;;;;;;;18.92;7.20;;;;;;;33.33;57.11;100454.44;5046535;28;66845;-38
2021/09/27 10:38:13;;;;;;;6.45;5.93;;;;;;;33.56;57.17;100488.00;5051290;27;70445;-38
2021/09/27 10:40:50;;;;;;;8.63;5.63;;;;;;;33.56;57.63;100496.16;5042538;28;65439;-39
2021/09/27 10:43:25;;;;;;;4.90;4.60;;;;;;;33.55;57.48;100494.53;5016716;28;71447;-38
2021/09/27 10:46:00;;;;;;;5.68;5.13;;;;;;;33.35;57.50;100460.47;5046268;28;66554;-37
2021/09/27 10:48:32;;;;;;;5.60;5.20;;;;;;;33.52;57.50;100489.56;5050591;28;69992;-39
2021/09/27 10:51:08;;;;;;;7.38;4.90;;;;;;;33.32;57.83;100469.13;5046643;28;65995;-38
2021/09/27 10:53:55;;;;;;;4.50;4.20;;;;;;;33.47;58.06;100493.00;5047977;28;70098;-39
2021/09/27 10:56:42;;;;;;;5.25;4.85;;;;;;;33.46;58.02;100501.41;5043537;28;65992;-39
2021/09/27 10:59:27;;;;;;;6.97;5.28;;;;;;;33.50;58.08;100508.00;5049552;28;69924;-42
2021/09/27 11:02:24;;;;;;;5.05;4.75;;;;;;;33.38;58.50;100522.50;5044710;28;66184;-39
2021/09/27 11:05:06;;;;;;;6.68;6.18;;;;;;;33.46;58.67;100512.28;5051805;28;69478;-39
2021/09/27 11:07:53;;;;;;;6.38;5.78;;;;;;;33.16;58.42;100480.81;5046751;28;66329;-38
2021/09/27 11:10:50;;;;;;;5.75;5.43;;;;;;;33.35;58.56;100520.28;5042991;28;70493;-40
2021/09/27 11:13:43;;;;;;;5.63;5.10;;;;;;;33.32;58.82;100530.78;5050416;28;66755;-38
2021/09/27 11:16:31;;;;;;;5.22;4.93;;;;;;;33.35;58.74;100538.50;5044443;28;69848;-38
2021/09/27 11:19:39;;;;;;;5.18;4.50;;;;;;;33.24;59.16;100545.63;5048849;28;65633;-39
2021/09/27 11:22:15;;;;;;;4.78;4.47;;;;;;;33.35;58.93;100552.91;5045718;28;70725;-39
2021/09/27 11:24:52;;;;;;;4.47;4.18;;;;;;;33.33;58.81;100557.75;5039744;28;65706;-37
2021/09/27 11:27:23;;;;;;;4.40;4.20;;;;;;;33.34;59.18;100562.09;5047644;28;70057;-38
2021/09/27 11:30:17;;;;;;;4.80;4.50;;;;;;;33.29;59.01;100561.19;5044983;28;66317;-40
2021/09/27 11:32:54;;;;;;;5.05;4.75;;;;;;;33.27;59.22;100563.34;5044147;28;70228;-38
2021/09/27 11:35:35;;;;;;;4.22;4.03;;;;;;;33.27;59.76;100574.22;5049379;28;66024;-39
2021/09/27 11:38:31;;;;;;;4.95;4.65;;;;;;;33.25;59.73;100571.75;5018640;28;70104;-38
2021/09/27 11:41:13;;;;;;;5.05;4.75;;;;;;;33.23;60.07;100584.75;5031727;28;65673;-38
2021/09/27 11:43:53;;;;;;;5.70;5.30;;;;;;;33.28;60.46;100598.44;5047572;28;69173;-37
2021/09/27 11:46:27;;;;;;;5.28;4.82;;;;;;;33.15;60.16;100585.13;5044994;28;65869;-38
2021/09/27 11:52:04;;;;;;;4.72;4.53;;;;;;;33.23;60.52;100621.97;5028589;28;65618;-39
2021/09/27 11:55:04;;;;;;;4.85;4.55;;;;;;;32.97;61.29;100599.72;5050557;28;70095;-38
2021/09/27 11:57:59;;;;;;;5.00;4.72;;;;;;;33.12;61.50;100619.06;5043255;28;65380;-38
2021/09/27 12:00:41;;;;;;;8.43;6.50;;;;;;;33.23;61.68;100639.09;5037268;28;69038;-38
2021/09/27 12:03:24;;;;;;;8.40;6.47;;;;;;;33.18;62.69;100640.91;5045534;28;66173;-39
2021/09/27 12:06:03;;;;;;;6.40;5.90;;;;;;;33.25;62.42;100647.03;5039020;28;69947;-38
2021/09/27 12:08:52;;;;;;;6.25;5.85;;;;;;;33.20;63.45;100650.47;5044252;28;64969;-38
2021/09/27 12:11:24;;;;;;;6.40;5.70;;;;;;;33.20;62.66;100644.22;5044698;27;69516;-38
2021/09/27 12:14:00;;;;;;;6.03;5.63;;;;;;;32.99;63.40;100613.03;5048646;28;65848;-38
2021/09/27 12:16:38;;;;;;;6.65;6.25;;;;;;;33.24;63.33;100661.66;5046207;28;69507;-38
2021/09/27 12:19:23;;;;;;;5.85;5.55;;;;;;;33.11;63.83;100657.34;5052967;28;65411;-38
2021/09/27 12:22:17;;;;;;;5.90;5.50;;;;;;;33.20;63.24;100664.06;5051500;28;70419;-38
2021/09/27 12:24:51;;;;;;;6.30;5.90;;;;;;;33.15;63.80;100669.38;5054413;28;66521;-38
2021/09/27 12:27:29;;;;;;;6.25;5.70;;;;;;;33.12;64.37;100678.03;5052580;28;70158;-38
2021/09/27 12:30:02;;;;;;;6.20;5.80;;;;;;;33.13;63.72;100672.34;5052334;28;65262;-38
2021/09/27 12:32:56;;;;;;;5.80;5.50;;;;;;;33.02;64.17;100675.94;5048472;28;70154;-38
2021/09/27 12:35:37;;;;;;;5.75;5.38;;;;;;;32.83;64.04;100639.91;5048421;28;66368;-38
2021/09/27 12:38:09;;;;;;;5.85;5.32;;;;;;;33.06;63.63;100676.28;5057676;28;69230;-38
2021/09/27 12:40:47;;;;;;;5.90;5.57;;;;;;;32.83;64.01;100639.91;5052484;28;66255;-38
2021/09/27 12:43:22;;;;;;;6.25;5.63;;;;;;;33.00;63.15;100688.09;5056892;28;70219;-39
2021/09/27 12:46:08;;;;;;;9.93;4.68;;;;;;;32.49;62.02;100626.16;5051278;28;66344;-37
2021/09/27 12:48:42;;;;;;;14.65;4.38;;;;;;;32.67;61.52;100673.22;5047511;27;69594;-38
2021/09/27 12:51:38;;;;;;;13.32;4.90;;;;;;;32.52;60.58;100665.56;5050792;28;66093;-38
2021/09/27 12:54:30;;;;;;;12.23;4.47;;;;;;;32.46;59.92;100699.09;5051555;28;70209;-38
2021/09/27 12:57:19;;;;;;;4.93;3.90;;;;;;;32.24;59.31;100672.50;5048307;27;65576;-38
2021/09/27 12:59:55;;;;;;;15.90;5.05;;;;;;;32.44;58.61;100712.06;5056950;28;70041;-38